Time;durP1;ratioP1;P1;durP2;ratioP2;P2;SDS_P1;SDS_P2;PMS_P1;PMS_P2;Temp;Humidity;BMP_temperature;BMP_pressure;BME280_temperature;BME280_humidity;BME280_pressure;Samples;Min_cycle;Max_cycle;Signal;HPM_P1;HPM_P2
2022/05/01 00:01:17;;;;;;;6.40;6.10;;;;;;;6.23;100.00;101422.78;5049006;28;20308;-62
2022/05/01 00:03:43;;;;;;;6.22;5.93;;;;;;;6.22;100.00;101421.09;5044020;28;20028;-61
2022/05/01 00:06:11;;;;;;;6.15;5.85;;;;;;;6.21;100.00;101424.72;5050396;28;20484;-60
2022/05/01 00:08:39;;;;;;;5.78;5.57;;;;;;;6.16;100.00;101418.13;5058005;28;20107;-61
2022/05/01 00:11:05;;;;;;;6.22;5.93;;;;;;;6.08;100.00;101418.75;5052235;28;20025;-61
2022/05/01 00:13:32;;;;;;;5.90;5.70;;;;;;;6.11;100.00;101420.31;5051138;28;20025;-62
2022/05/01 00:15:57;;;;;;;6.40;6.10;;;;;;;6.13;100.00;101418.41;5041419;28;20231;-62
2022/05/01 00:18:23;;;;;;;5.82;5.63;;;;;;;6.07;100.00;101420.56;5047496;28;20056;-62
2022/05/01 00:20:49;;;;;;;5.70;5.50;;;;;;;6.08;100.00;101422.22;5054364;28;20460;-62
2022/05/01 00:23:15;;;;;;;5.80;5.60;;;;;;;6.09;100.00;101430.97;5054942;28;20108;-61
2022/05/01 00:25:42;;;;;;;6.30;6.00;;;;;;;6.03;100.00;101424.41;5062268;28;20027;-62
2022/05/01 00:28:11;;;;;;;6.13;5.85;;;;;;;6.03;100.00;101426.22;5055323;28;20568;-60
2022/05/01 00:30:38;;;;;;;6.63;6.32;;;;;;;5.94;100.00;101417.22;5045849;28;20029;-62
2022/05/01 00:38:31;;;;;;;5.80;5.60;;;;;;;5.79;100.00;101427.16;5041190;28;20124;-61
2022/05/01 00:40:58;;;;;;;6.13;5.82;;;;;;;5.67;100.00;101425.50;5054743;28;20125;-61
2022/05/01 00:43:24;;;;;;;6.90;6.60;;;;;;;5.64;100.00;101427.53;5053277;28;20021;-61
2022/05/01 00:45:50;;;;;;;6.18;5.88;;;;;;;5.62;100.00;101427.66;5054804;28;20120;-60
2022/05/01 00:48:16;;;;;;;6.05;5.80;;;;;;;5.64;100.00;101415.19;5053554;28;20044;-62
2022/05/01 00:50:43;;;;;;;6.15;5.85;;;;;;;5.67;100.00;101420.25;5054123;28;20025;-63
2022/05/01 00:53:10;;;;;;;6.18;5.88;;;;;;;5.71;100.00;101426.91;5054086;28;20033;-61
2022/05/01 00:55:36;;;;;;;6.13;5.82;;;;;;;5.54;100.00;101417.72;5054535;28;20094;-60
2022/05/01 00:58:05;;;;;;;6.30;6.00;;;;;;;5.66;100.00;101418.56;5048063;28;20041;-61
2022/05/01 01:00:31;;;;;;;5.90;5.70;;;;;;;5.61;100.00;101422.50;5058616;28;20435;-61
2022/05/01 01:02:56;;;;;;;5.75;5.55;;;;;;;5.61;100.00;101415.44;5053312;28;20024;-60
2022/05/01 01:05:22;;;;;;;6.20;5.90;;;;;;;5.53;100.00;101408.16;5053032;28;20024;-63
2022/05/01 01:07:47;;;;;;;6.32;6.03;;;;;;;5.61;100.00;101412.81;5053171;28;20108;-63
2022/05/01 01:10:13;;;;;;;5.93;5.65;;;;;;;5.56;100.00;101425.50;5053963;28;20085;-62
2022/05/01 01:12:54;;;;;;;5.82;5.60;;;;;;;5.58;100.00;101422.75;5053051;28;20025;-61
2022/05/01 01:15:21;;;;;;;6.10;5.80;;;;;;;5.57;100.00;101416.63;5048983;28;20477;-61
2022/05/01 01:17:52;;;;;;;6.20;5.90;;;;;;;5.60;100.00;101429.56;5055644;28;20021;-61
2022/05/01 01:20:22;;;;;;;6.20;5.90;;;;;;;5.53;100.00;101426.59;5052884;28;20060;-62
2022/05/01 01:22:50;;;;;;;6.07;5.78;;;;;;;5.50;100.00;101429.44;5053778;28;20063;-62
2022/05/01 01:25:19;;;;;;;6.10;5.80;;;;;;;5.48;100.00;101420.84;5047251;28;20106;-62
2022/05/01 01:27:44;;;;;;;6.20;5.90;;;;;;;5.49;100.00;101427.75;5046273;28;20474;-62
2022/05/01 01:32:55;;;;;;;6.68;6.38;;;;;;;5.43;100.00;101424.78;5058857;28;20123;-62
2022/05/01 01:35:24;;;;;;;6.00;5.70;;;;;;;5.37;100.00;101425.28;5041963;28;20119;-62
2022/05/01 01:37:56;;;;;;;6.15;5.85;;;;;;;5.40;100.00;101425.84;5046391;28;20039;-62
2022/05/01 01:40:37;;;;;;;6.00;5.70;;;;;;;5.37;100.00;101420.84;5049899;28;20032;-62
2022/05/01 01:43:05;;;;;;;5.80;5.60;;;;;;;5.35;100.00;101430.63;5052763;28;20025;-62
2022/05/01 01:45:31;;;;;;;5.60;5.40;;;;;;;5.30;100.00;101424.91;5053670;28;20020;-62
2022/05/01 01:48:11;;;;;;;6.32;6.03;;;;;;;5.31;100.00;101417.84;5053170;28;20411;-62
2022/05/01 01:50:37;;;;;;;5.90;5.70;;;;;;;5.27;100.00;101417.22;5059415;28;20063;-62
2022/05/01 01:53:02;;;;;;;5.80;5.60;;;;;;;5.16;100.00;101425.97;5052356;28;20053;-62
2022/05/01 01:55:33;;;;;;;5.80;5.60;;;;;;;5.13;100.00;101420.94;5042047;28;20025;-60
2022/05/01 01:57:59;;;;;;;6.13;5.82;;;;;;;5.11;100.00;101417.59;5052819;28;20061;-60
2022/05/01 02:00:25;;;;;;;5.85;5.65;;;;;;;5.08;100.00;101417.00;5047695;28;20060;-61
2022/05/01 02:02:57;;;;;;;5.88;5.65;;;;;;;5.01;100.00;101416.63;5043908;28;20028;-61
2022/05/01 02:05:23;;;;;;;5.50;5.30;;;;;;;4.97;100.00;101410.75;5053139;28;20017;-60
2022/05/01 02:07:48;;;;;;;5.80;5.60;;;;;;;5.08;100.00;101423.09;5053660;28;20127;-62
2022/05/01 02:10:14;;;;;;;6.10;5.80;;;;;;;5.08;100.00;101422.25;5051736;28;20180;-62
2022/05/01 02:12:40;;;;;;;6.25;5.95;;;;;;;4.99;100.00;101411.50;5052476;28;20036;-62
2022/05/01 02:15:06;;;;;;;5.80;5.57;;;;;;;5.01;100.00;101418.41;5052587;28;20078;-62
2022/05/01 02:17:31;;;;;;;5.90;5.70;;;;;;;4.97;100.00;101417.78;5041935;28;20033;-62
2022/05/01 02:19:57;;;;;;;6.25;5.95;;;;;;;4.88;100.00;101410.63;5048636;28;20100;-61
2022/05/01 02:22:23;;;;;;;6.20;5.90;;;;;;;4.76;100.00;101417.63;5044197;28;20029;-61
2022/05/01 02:24:49;;;;;;;5.80;5.60;;;;;;;4.70;100.00;101420.69;5052196;28;20020;-62
2022/05/01 02:27:14;;;;;;;6.13;5.82;;;;;;;4.54;100.00;101415.75;5051647;28;20469;-62
2022/05/01 02:29:40;;;;;;;6.15;5.85;;;;;;;4.70;100.00;101403.16;5052506;28;20029;-62
2022/05/01 02:32:06;;;;;;;6.22;5.93;;;;;;;4.85;100.00;101411.69;5052358;28;20107;-61
2022/05/01 02:34:31;;;;;;;6.07;5.78;;;;;;;4.79;100.00;101419.19;5047229;28;20025;-60
2022/05/01 02:36:57;;;;;;;5.60;5.40;;;;;;;4.77;100.00;101421.09;5048120;28;20025;-61
2022/05/01 02:39:24;;;;;;;5.90;5.70;;;;;;;4.82;100.00;101422.44;5052416;28;20024;-60
2022/05/01 02:41:50;;;;;;;6.30;6.00;;;;;;;4.84;100.00;101415.25;5049055;28;20090;-61
2022/05/01 02:44:16;;;;;;;6.13;5.82;;;;;;;4.81;100.00;101422.53;5052500;28;20021;-62
2022/05/01 02:46:41;;;;;;;6.05;5.78;;;;;;;4.79;100.00;101414.78;5052350;28;20469;-63
2022/05/01 02:49:08;;;;;;;5.72;5.53;;;;;;;4.77;100.00;101415.81;5050910;28;20480;-61
2022/05/01 02:51:34;;;;;;;5.70;5.50;;;;;;;4.75;100.00;101420.38;5049747;28;20379;-60
2022/05/01 02:54:01;;;;;;;6.10;5.80;;;;;;;4.77;100.00;101411.41;5052452;28;20044;-61
2022/05/01 02:56:26;;;;;;;6.40;6.10;;;;;;;4.91;100.00;101415.63;5050698;28;20060;-61
2022/05/01 02:58:52;;;;;;;5.50;5.30;;;;;;;4.88;100.00;101416.72;5051615;28;20072;-62
2022/05/01 03:01:17;;;;;;;5.45;5.25;;;;;;;4.96;100.00;101413.50;5052043;28;20036;-61
2022/05/01 03:03:43;;;;;;;6.10;5.80;;;;;;;4.92;100.00;101418.16;5050106;28;20021;-60
2022/05/01 03:06:09;;;;;;;6.18;5.88;;;;;;;5.06;100.00;101424.13;5051158;28;20117;-60
2022/05/01 03:08:34;;;;;;;5.70;5.50;;;;;;;5.05;100.00;101425.94;5050931;28;20107;-63
2022/05/01 03:11:01;;;;;;;6.03;5.75;;;;;;;4.98;100.00;101424.72;5051821;28;20116;-61
2022/05/01 03:13:27;;;;;;;6.10;5.80;;;;;;;5.26;100.00;101432.19;5051720;28;20029;-61
2022/05/01 03:15:53;;;;;;;5.72;5.53;;;;;;;5.05;100.00;101433.81;5051244;28;20037;-61
2022/05/01 03:23:48;;;;;;;6.47;6.18;;;;;;;4.67;100.00;101444.59;5050798;28;20178;-61
2022/05/01 03:26:16;;;;;;;6.45;6.15;;;;;;;4.49;100.00;101452.06;5051767;28;20104;-62
2022/05/01 03:28:43;;;;;;;6.22;5.93;;;;;;;4.47;100.00;101458.38;5051450;28;20031;-61
2022/05/01 03:31:10;;;;;;;6.35;6.05;;;;;;;4.90;100.00;101456.84;5050610;28;20511;-62
2022/05/01 03:33:36;;;;;;;6.00;5.70;;;;;;;4.88;100.00;101460.56;5063447;28;20056;-62
2022/05/01 03:36:06;;;;;;;6.10;5.80;;;;;;;4.80;100.00;101463.75;5051871;28;20083;-61
2022/05/01 03:38:36;;;;;;;6.07;5.82;;;;;;;4.86;100.00;101463.31;5050714;28;20021;-62
2022/05/01 03:41:04;;;;;;;6.32;6.03;;;;;;;5.17;100.00;101453.94;5050623;28;20087;-61
2022/05/01 03:43:31;;;;;;;6.15;5.85;;;;;;;5.45;100.00;101462.34;5051455;28;20033;-61
2022/05/01 03:45:57;;;;;;;6.10;5.80;;;;;;;5.62;100.00;101456.59;5048637;28;20021;-62
2022/05/01 03:48:23;;;;;;;7.18;6.80;;;;;;;6.08;100.00;101463.53;5033508;28;20032;-61
2022/05/01 03:50:51;;;;;;;6.10;5.80;;;;;;;8.48;100.00;101461.59;5061134;28;20068;-60
2022/05/01 03:53:17;;;;;;;6.40;6.10;;;;;;;9.79;100.00;101475.84;5037971;28;20025;-61
2022/05/01 03:55:42;;;;;;;6.00;5.75;;;;;;;9.33;100.00;101468.78;5054713;28;20373;-62
2022/05/01 03:58:08;;;;;;;6.10;5.80;;;;;;;11.67;92.29;101481.03;5053778;28;20061;-61
2022/05/01 04:00:35;;;;;;;5.82;5.63;;;;;;;12.53;85.13;101478.19;5053107;28;20082;-61
2022/05/01 04:03:00;;;;;;;6.20;5.90;;;;;;;13.72;78.21;101477.59;5055468;28;20081;-61
2022/05/01 04:05:27;;;;;;;6.10;5.90;;;;;;;14.31;75.33;101480.66;5055578;28;20092;-61
2022/05/01 04:07:52;;;;;;;6.15;5.93;;;;;;;15.01;69.62;101482.38;5054522;28;20145;-60
2022/05/01 04:10:18;;;;;;;6.60;6.30;;;;;;;15.59;67.22;101488.84;5052730;28;20060;-63
2022/05/01 04:12:44;;;;;;;6.90;6.60;;;;;;;15.87;63.81;101489.06;5052897;28;20074;-62
2022/05/01 04:15:12;;;;;;;6.60;6.30;;;;;;;16.50;61.86;101490.19;5047791;28;20033;-62
2022/05/01 04:17:39;;;;;;;6.72;6.43;;;;;;;17.14;57.65;101490.22;5059586;28;20028;-62
2022/05/01 04:20:10;;;;;;;6.80;6.50;;;;;;;17.54;55.38;101487.78;5055462;28;20032;-62
2022/05/01 04:22:37;;;;;;;6.80;6.50;;;;;;;17.46;55.46;101494.13;5050941;28;20060;-62
2022/05/01 04:25:06;;;;;;;6.93;6.63;;;;;;;18.74;52.24;101493.50;5054827;28;20032;-62
2022/05/01 04:27:31;;;;;;;7.10;6.80;;;;;;;19.16;49.27;101494.09;5054458;28;20028;-62
2022/05/01 04:29:57;;;;;;;7.22;6.93;;;;;;;19.27;47.85;101487.28;5054621;28;20017;-62
2022/05/01 04:32:23;;;;;;;6.95;6.65;;;;;;;20.44;44.51;101497.09;5056020;28;20504;-61
2022/05/01 04:34:48;;;;;;;6.90;6.60;;;;;;;20.11;43.63;101489.97;5061887;28;20025;-61
2022/05/01 04:37:14;;;;;;;7.20;6.90;;;;;;;20.27;43.60;101485.13;5044936;28;20087;-62
2022/05/01 04:39:39;;;;;;;7.13;6.82;;;;;;;21.67;40.88;101485.75;5053858;28;20091;-61
2022/05/01 04:42:05;;;;;;;7.10;6.80;;;;;;;20.76;41.35;101479.03;5057480;28;20048;-62
2022/05/01 04:44:30;;;;;;;7.15;6.85;;;;;;;22.14;39.01;101477.91;5050177;28;20029;-61
2022/05/01 04:46:56;;;;;;;7.10;6.80;;;;;;;21.27;40.16;101482.56;5053604;28;20033;-62
2022/05/01 04:49:22;;;;;;;7.00;6.70;;;;;;;22.70;37.93;101480.22;5052429;28;20038;-63
2022/05/01 04:51:47;;;;;;;7.13;6.82;;;;;;;21.71;39.18;101476.94;5054768;28;20033;-62
2022/05/01 04:54:13;;;;;;;7.20;6.90;;;;;;;22.91;36.80;101483.47;5054252;28;20461;-62
2022/05/01 04:59:23;;;;;;;7.10;6.80;;;;;;;22.31;37.97;101489.72;5052221;28;20052;-62
2022/05/01 05:01:48;;;;;;;7.20;6.90;;;;;;;23.14;36.47;101489.75;5054066;28;20108;-62
2022/05/01 05:04:14;;;;;;;6.93;6.63;;;;;;;23.09;36.52;101488.78;5054006;28;20021;-62
2022/05/01 05:06:39;;;;;;;7.10;6.80;;;;;;;22.53;37.53;101492.75;5052874;28;20032;-62
2022/05/01 05:11:49;;;;;;;7.22;6.93;;;;;;;23.88;36.55;101487.34;5045592;28;20078;-62
2022/05/01 05:14:14;;;;;;;7.15;6.85;;;;;;;24.36;33.89;101491.53;5053001;28;20044;-61
2022/05/01 05:16:41;;;;;;;7.20;6.90;;;;;;;24.66;34.14;101495.88;5040796;28;20041;-63
2022/05/01 05:19:06;;;;;;;7.15;6.85;;;;;;;23.69;34.90;101486.66;5059486;28;20468;-62
2022/05/01 05:21:32;;;;;;;7.32;7.03;;;;;;;24.88;33.19;101495.97;5054064;28;20035;-63
2022/05/01 05:23:57;;;;;;;7.13;6.82;;;;;;;25.34;32.04;101503.81;5052558;28;20412;-62
2022/05/01 05:26:23;;;;;;;7.30;7.00;;;;;;;25.47;32.53;101505.34;5048787;28;20017;-62
2022/05/01 05:28:49;;;;;;;7.20;6.90;;;;;;;25.20;32.32;101507.13;5044114;28;20029;-62
2022/05/01 05:31:14;;;;;;;7.15;6.85;;;;;;;25.42;31.71;101510.72;5054014;28;20108;-62
2022/05/01 05:33:40;;;;;;;7.18;6.88;;;;;;;25.35;31.99;101512.78;5053538;28;20461;-60
2022/05/01 05:36:05;;;;;;;7.32;7.03;;;;;;;25.78;31.10;101503.91;5043186;28;20086;-62
2022/05/01 05:38:33;;;;;;;7.25;6.95;;;;;;;25.92;30.90;101503.53;5053644;28;20412;-63
2022/05/01 05:40:59;;;;;;;7.07;6.78;;;;;;;24.82;31.82;101500.50;5052421;28;20045;-62
2022/05/01 05:43:24;;;;;;;7.30;7.00;;;;;;;25.73;31.11;101512.00;5049060;28;20028;-62
2022/05/01 05:45:50;;;;;;;7.18;6.88;;;;;;;26.78;29.76;101503.66;5044328;28;20021;-62
2022/05/01 05:48:16;;;;;;;7.07;6.78;;;;;;;26.35;30.44;101502.66;5054439;28;20021;-62
2022/05/01 05:50:41;;;;;;;7.30;7.00;;;;;;;26.88;30.51;101515.47;5053616;28;20496;-62
2022/05/01 05:53:07;;;;;;;6.90;6.60;;;;;;;27.48;29.43;101506.09;5052311;28;20083;-61
2022/05/01 05:55:33;;;;;;;7.13;6.82;;;;;;;26.94;30.39;101505.41;5052304;28;20029;-62
2022/05/01 05:58:00;;;;;;;7.10;6.80;;;;;;;27.16;30.23;101508.06;5052184;28;20056;-62
2022/05/01 06:00:26;;;;;;;7.20;6.90;;;;;;;27.38;29.50;101505.22;5052814;28;20021;-62
2022/05/01 06:02:51;;;;;;;7.30;7.00;;;;;;;26.97;30.27;101502.19;5046729;28;20032;-63
2022/05/01 06:05:17;;;;;;;7.50;7.20;;;;;;;28.82;28.04;101503.56;5056657;28;20173;-61
2022/05/01 06:07:42;;;;;;;7.30;7.00;;;;;;;27.83;29.06;101504.66;5056273;28;20029;-62
2022/05/01 06:10:08;;;;;;;7.40;7.10;;;;;;;27.29;29.76;101498.63;5053411;28;20121;-62
2022/05/01 06:12:40;;;;;;;7.45;7.15;;;;;;;28.11;28.93;101502.59;5047909;28;20021;-62
2022/05/01 06:15:07;;;;;;;7.32;7.03;;;;;;;29.36;27.28;101510.34;5059141;28;20024;-64
2022/05/01 06:17:32;;;;;;;7.35;7.05;;;;;;;28.14;28.26;101505.63;5061535;28;20033;-61
2022/05/01 06:19:57;;;;;;;7.10;6.80;;;;;;;29.49;26.84;101514.44;5050274;28;20242;-63
2022/05/01 06:22:23;;;;;;;7.35;7.05;;;;;;;29.76;26.56;101517.66;5048597;28;20075;-63
2022/05/01 06:24:48;;;;;;;7.35;7.05;;;;;;;29.68;26.58;101512.78;5049220;28;20024;-62
2022/05/01 06:27:14;;;;;;;7.60;7.30;;;;;;;30.44;26.04;101504.19;5058083;28;20032;-63
2022/05/01 06:29:39;;;;;;;7.30;7.00;;;;;;;29.03;27.09;101503.59;5046901;28;20884;-62
2022/05/01 06:32:07;;;;;;;7.20;6.90;;;;;;;28.65;27.86;101492.09;5053039;28;20106;-63
2022/05/01 06:34:35;;;;;;;7.47;7.18;;;;;;;29.42;26.26;101510.06;5053038;28;20027;-62
2022/05/01 06:37:00;;;;;;;7.40;7.10;;;;;;;28.78;27.32;101498.91;5046564;28;20032;-62
2022/05/01 06:39:26;;;;;;;7.47;7.18;;;;;;;28.79;27.00;101504.13;5046775;28;20491;-62
2022/05/01 06:41:52;;;;;;;7.22;6.93;;;;;;;28.73;27.21;101504.38;5041927;28;20113;-63
2022/05/01 06:44:17;;;;;;;7.30;7.00;;;;;;;29.11;27.06;101503.03;5057997;28;20029;-63
2022/05/01 06:46:42;;;;;;;7.10;6.80;;;;;;;28.53;27.29;101499.72;5051618;28;20025;-62
2022/05/01 06:49:08;;;;;;;7.10;6.80;;;;;;;28.77;26.42;101495.34;5049100;28;20510;-62
2022/05/01 06:51:34;;;;;;;7.30;7.00;;;;;;;30.05;25.18;101509.63;5048643;28;20029;-64
2022/05/01 06:53:59;;;;;;;7.20;6.90;;;;;;;29.25;25.50;101512.31;5046549;28;20036;-63
2022/05/01 06:56:25;;;;;;;7.20;6.90;;;;;;;28.01;26.48;101503.38;5044025;28;20389;-61
2022/05/01 06:58:50;;;;;;;7.30;7.00;;;;;;;29.48;24.77;101510.06;5042743;28;20124;-62
2022/05/01 07:01:15;;;;;;;7.32;7.03;;;;;;;28.22;26.13;101504.28;5049159;28;20029;-63
2022/05/01 07:03:42;;;;;;;7.30;7.00;;;;;;;29.24;24.81;101507.94;5047072;28;20029;-63
2022/05/01 07:06:07;;;;;;;7.38;7.07;;;;;;;29.72;24.37;101508.38;5039342;28;20024;-63
2022/05/01 07:08:33;;;;;;;7.40;7.10;;;;;;;28.39;25.38;101502.16;5037927;28;20108;-62
2022/05/01 07:10:58;;;;;;;7.28;6.97;;;;;;;27.46;26.41;101502.81;5051836;28;20028;-63
2022/05/01 07:13:24;;;;;;;7.40;7.10;;;;;;;27.15;27.06;101495.53;5051884;28;20043;-63
2022/05/01 07:15:50;;;;;;;7.30;7.00;;;;;;;29.60;25.40;101502.38;5051574;28;20067;-62
2022/05/01 07:18:15;;;;;;;7.10;6.80;;;;;;;27.10;26.12;101490.88;5051383;28;20547;-63
2022/05/01 07:20:41;;;;;;;7.20;6.90;;;;;;;28.59;25.19;101493.16;5037892;28;20109;-63
2022/05/01 07:23:06;;;;;;;7.20;6.90;;;;;;;29.87;23.04;101497.38;5050461;28;20032;-63
2022/05/01 07:25:32;;;;;;;7.35;7.05;;;;;;;29.26;23.95;101496.72;5051402;28;20036;-62
2022/05/01 07:27:58;;;;;;;7.38;7.07;;;;;;;28.67;23.46;101491.81;5051117;28;20498;-64
2022/05/01 07:30:23;;;;;;;7.20;6.90;;;;;;;30.44;20.81;101493.25;5050932;28;20025;-63
2022/05/01 07:32:49;;;;;;;7.30;7.00;;;;;;;28.61;22.18;101493.72;5053540;28;20029;-63
2022/05/01 07:35:14;;;;;;;7.13;6.82;;;;;;;28.52;22.31;101487.16;5044374;28;20757;-62
2022/05/01 07:37:40;;;;;;;7.38;7.07;;;;;;;28.13;22.52;101486.75;5045950;28;20488;-63
2022/05/01 07:40:05;;;;;;;7.10;6.80;;;;;;;27.74;22.62;101490.72;5049391;28;20029;-63
2022/05/01 07:42:31;;;;;;;6.95;6.65;;;;;;;27.90;22.64;101486.13;5051236;28;20481;-63
2022/05/01 07:44:57;;;;;;;7.25;6.95;;;;;;;27.33;24.01;101486.13;5050466;28;20020;-63
2022/05/01 07:47:22;;;;;;;7.10;6.80;;;;;;;27.08;24.35;101481.31;5051360;28;20036;-63
2022/05/01 07:49:48;;;;;;;7.32;7.03;;;;;;;27.99;22.86;101473.66;5042741;28;20129;-63
2022/05/01 07:52:13;;;;;;;7.10;6.80;;;;;;;27.74;21.94;101477.09;5035141;28;20487;-62
2022/05/01 07:54:39;;;;;;;7.20;6.90;;;;;;;26.22;23.85;101475.84;5049904;28;20515;-62
2022/05/01 07:57:04;;;;;;;7.20;6.90;;;;;;;25.45;26.22;101469.47;5045652;28;20511;-62
2022/05/01 07:59:30;;;;;;;7.40;7.10;;;;;;;26.56;22.50;101471.88;5040709;28;20092;-63
2022/05/01 08:01:55;;;;;;;7.00;6.70;;;;;;;25.55;24.08;101458.72;5039074;28;20025;-62
2022/05/01 08:04:30;;;;;;;7.30;7.00;;;;;;;26.41;22.63;101466.28;5056660;28;20465;-63
2022/05/01 08:07:04;;;;;;;6.97;6.68;;;;;;;23.70;24.96;101455.78;5053317;28;20531;-63
2022/05/01 08:09:30;;;;;;;7.38;7.07;;;;;;;24.15;23.44;101454.25;5055778;28;20106;-64
2022/05/01 08:11:56;;;;;;;7.10;6.80;;;;;;;24.97;23.68;101453.78;5058816;28;20032;-63
2022/05/01 08:14:22;;;;;;;7.40;7.10;;;;;;;23.91;24.97;101454.31;5045459;28;20056;-63
2022/05/01 08:16:51;;;;;;;7.90;7.60;;;;;;;25.08;22.31;101447.47;5046285;28;20390;-63
2022/05/01 08:22:02;;;;;;;7.03;6.72;;;;;;;24.67;22.48;101443.25;5058853;28;20028;-62
2022/05/01 08:24:27;;;;;;;7.40;7.10;;;;;;;26.04;21.05;101437.06;5054578;28;20025;-63
2022/05/01 08:26:53;;;;;;;7.40;7.10;;;;;;;26.17;21.54;101439.38;5050558;28;20342;-63
2022/05/01 08:29:19;;;;;;;7.22;6.93;;;;;;;24.30;24.43;101443.66;5054663;28;20033;-64
2022/05/01 08:31:44;;;;;;;7.10;6.80;;;;;;;24.09;24.51;101428.94;5040111;28;20025;-64
2022/05/01 08:34:11;;;;;;;7.30;7.00;;;;;;;24.96;21.84;101449.41;5052139;28;20136;-63
2022/05/01 08:36:37;;;;;;;7.20;6.90;;;;;;;23.66;24.91;101435.69;5046897;28;20434;-63
2022/05/01 08:39:03;;;;;;;7.32;7.03;;;;;;;19.80;28.62;101428.78;5048484;28;20027;-63
2022/05/01 08:41:31;;;;;;;7.22;6.93;;;;;;;24.27;24.19;101430.63;5054469;28;20103;-63
2022/05/01 08:43:57;;;;;;;7.30;7.00;;;;;;;21.18;28.20;101428.88;5061056;28;20028;-63
2022/05/01 08:46:47;;;;;;;7.40;7.10;;;;;;;23.71;26.03;101430.34;5048537;28;20028;-63
2022/05/01 08:49:17;;;;;;;7.10;6.80;;;;;;;19.98;28.92;101428.09;5066612;28;20028;-64
2022/05/01 08:51:43;;;;;;;7.07;6.78;;;;;;;20.63;28.49;101422.53;5051372;28;20025;-63
2022/05/01 08:54:13;;;;;;;7.18;6.88;;;;;;;20.95;28.58;101420.59;5055196;28;20033;-62
2022/05/01 08:56:43;;;;;;;7.45;7.15;;;;;;;21.54;27.49;101412.97;5048178;28;20025;-63
2022/05/01 08:59:11;;;;;;;7.10;6.80;;;;;;;20.76;28.03;101421.59;5051399;28;20091;-63
2022/05/01 09:01:38;;;;;;;7.30;7.00;;;;;;;19.73;30.21;101408.31;5052098;28;20100;-64
2022/05/01 09:04:06;;;;;;;7.20;6.90;;;;;;;23.39;25.53;101404.72;5053309;28;20333;-63
2022/05/01 09:06:34;;;;;;;7.13;6.82;;;;;;;21.12;27.41;101410.06;5052598;28;20079;-63
2022/05/01 09:09:03;;;;;;;7.20;6.90;;;;;;;20.78;29.63;101406.84;5046694;28;20029;-63
2022/05/01 09:14:13;;;;;;;6.88;6.57;;;;;;;22.21;25.06;101405.69;5055679;28;20027;-65
2022/05/01 09:16:39;;;;;;;7.70;7.40;;;;;;;19.81;28.37;101408.91;5071108;28;20033;-65
2022/05/01 09:19:05;;;;;;;7.28;6.97;;;;;;;22.30;25.71;101401.59;5055164;28;20013;-65
2022/05/01 09:21:52;;;;;;;7.32;7.03;;;;;;;21.95;25.04;101390.63;5048682;28;20055;-65
2022/05/01 09:24:29;;;;;;;7.18;6.88;;;;;;;20.94;25.82;101406.31;5051708;28;20219;-65
2022/05/01 09:26:56;;;;;;;7.28;6.97;;;;;;;22.99;23.88;101404.63;5051068;28;20025;-64
2022/05/01 09:29:23;;;;;;;7.10;6.80;;;;;;;22.00;24.02;101401.56;5045826;28;20432;-64
2022/05/01 09:31:52;;;;;;;6.88;6.57;;;;;;;22.50;23.49;101394.00;5053634;28;20052;-64
2022/05/01 09:34:18;;;;;;;6.95;6.65;;;;;;;23.69;22.15;101388.31;5066778;28;20029;-65
2022/05/01 09:36:44;;;;;;;7.20;6.90;;;;;;;23.29;23.45;101399.09;5053501;28;20078;-64
2022/05/01 09:39:10;;;;;;;7.15;6.85;;;;;;;23.66;22.58;101391.53;5052154;28;20090;-64
2022/05/01 09:41:41;;;;;;;7.20;6.90;;;;;;;20.10;28.61;101390.53;5048385;28;20068;-65
2022/05/01 09:44:15;;;;;;;7.10;6.80;;;;;;;22.44;24.80;101377.88;5042054;28;20384;-65
2022/05/01 09:46:43;;;;;;;6.75;6.45;;;;;;;23.41;23.79;101376.34;5045638;28;20021;-64
2022/05/01 09:49:15;;;;;;;6.90;6.60;;;;;;;20.97;24.33;101378.03;5053116;28;20032;-65
2022/05/01 09:51:55;;;;;;;7.10;6.80;;;;;;;19.18;23.25;101378.25;5045708;28;20425;-65
2022/05/01 09:54:22;;;;;;;6.80;6.50;;;;;;;20.05;26.78;101375.03;5043040;28;20496;-64
2022/05/01 09:56:52;;;;;;;6.90;6.60;;;;;;;21.39;26.77;101370.97;5040628;28;20548;-65
2022/05/01 09:59:20;;;;;;;7.00;6.70;;;;;;;20.10;28.17;101379.75;5053081;28;20079;-63
2022/05/01 10:02:02;;;;;;;6.70;6.40;;;;;;;19.59;28.05;101373.38;5053030;28;20047;-65
2022/05/01 10:04:29;;;;;;;6.93;6.63;;;;;;;20.70;26.18;101370.19;5052671;28;20075;-65
2022/05/01 10:06:57;;;;;;;7.00;6.70;;;;;;;21.38;25.12;101363.13;5052881;28;20083;-65
2022/05/01 10:09:28;;;;;;;7.10;6.80;;;;;;;21.87;24.82;101358.53;5044220;28;20638;-66
2022/05/01 10:12:04;;;;;;;6.90;6.60;;;;;;;20.80;25.94;101366.19;5037572;28;20030;-65
2022/05/01 10:14:30;;;;;;;7.10;6.80;;;;;;;21.73;25.34;101361.41;5051862;28;20113;-63
2022/05/01 10:16:56;;;;;;;6.78;6.47;;;;;;;21.73;24.13;101363.28;5056768;28;20083;-63
2022/05/01 10:19:26;;;;;;;6.80;6.50;;;;;;;21.43;24.33;101360.53;5057841;28;20487;-65
2022/05/01 10:21:56;;;;;;;7.15;6.85;;;;;;;21.50;24.04;101355.88;5051972;28;20029;-65
2022/05/01 10:24:23;;;;;;;7.05;6.75;;;;;;;19.10;27.18;101354.28;5042994;28;20029;-65
2022/05/01 10:26:54;;;;;;;7.40;7.10;;;;;;;19.93;26.02;101351.69;5045504;28;20033;-64
2022/05/01 10:33:14;;;;;;;6.90;6.60;;;;;;;19.91;24.65;101341.13;5057140;28;20043;-65
2022/05/01 10:35:55;;;;;;;8.20;7.90;;;;;;;18.75;25.62;101339.22;5035215;28;20075;-65
2022/05/01 10:38:26;;;;;;;7.50;7.20;;;;;;;20.20;25.48;101339.69;5042810;28;20493;-64
2022/05/01 10:40:55;;;;;;;7.20;6.90;;;;;;;20.51;23.39;101338.03;5039568;28;20025;-64
2022/05/01 10:43:30;;;;;;;7.50;7.20;;;;;;;21.48;23.26;101333.72;5044237;28;20048;-64
2022/05/01 10:46:16;;;;;;;6.85;6.55;;;;;;;21.68;23.69;101334.28;5047440;28;20021;-64
2022/05/01 10:48:41;;;;;;;6.80;6.50;;;;;;;20.10;26.11;101332.06;5052124;28;20151;-63
2022/05/01 10:51:31;;;;;;;7.05;6.75;;;;;;;20.15;26.11;101339.53;5052067;28;20096;-64
2022/05/01 10:54:19;;;;;;;6.90;6.60;;;;;;;20.35;24.74;101331.28;5047305;28;20025;-64
2022/05/01 10:56:50;;;;;;;6.85;6.55;;;;;;;20.25;25.36;101325.56;5051900;28;20507;-64
2022/05/01 10:59:30;;;;;;;7.00;6.70;;;;;;;20.92;24.82;101322.06;5051837;28;20055;-64
2022/05/01 11:02:22;;;;;;;7.10;6.80;;;;;;;21.78;23.75;101326.44;5049070;28;20036;-64
2022/05/01 11:04:49;;;;;;;7.10;6.80;;;;;;;19.92;26.28;101321.25;5044181;28;20130;-65
2022/05/01 11:07:16;;;;;;;6.90;6.60;;;;;;;19.51;26.23;101322.44;5046103;28;20024;-65
2022/05/01 11:09:47;;;;;;;6.90;6.60;;;;;;;20.78;25.87;101314.31;5061156;28;20070;-64
2022/05/01 11:12:14;;;;;;;7.10;6.80;;;;;;;20.89;24.56;101311.72;5043398;28;20053;-63
2022/05/01 11:15:00;;;;;;;7.07;6.78;;;;;;;21.11;25.37;101305.91;5051804;28;20089;-65
2022/05/01 11:17:42;;;;;;;7.43;7.13;;;;;;;21.61;24.79;101309.25;5050385;28;20044;-65
2022/05/01 11:20:29;;;;;;;7.60;7.30;;;;;;;21.16;25.10;101303.34;5042364;28;20537;-64
2022/05/01 11:22:55;;;;;;;6.93;6.63;;;;;;;20.67;25.59;101303.25;5051590;28;20120;-64
2022/05/01 11:25:32;;;;;;;7.60;7.30;;;;;;;20.34;25.50;101302.66;5049893;28;20127;-64
2022/05/01 11:27:58;;;;;;;7.13;6.82;;;;;;;20.92;25.17;101302.34;5051232;28;20017;-65
2022/05/01 11:30:26;;;;;;;7.28;6.97;;;;;;;21.72;24.74;101311.16;5046983;28;20510;-64
2022/05/01 11:33:06;;;;;;;6.88;6.57;;;;;;;20.27;27.74;101309.97;5051262;28;20021;-64
2022/05/01 11:35:51;;;;;;;6.97;6.68;;;;;;;18.87;28.68;101312.50;5047448;28;20083;-64
2022/05/01 11:38:17;;;;;;;7.07;6.78;;;;;;;18.56;30.26;101306.97;5050434;28;20039;-65
2022/05/01 11:40:53;;;;;;;7.60;7.30;;;;;;;19.41;28.90;101311.31;5048259;28;20388;-64
2022/05/01 11:43:20;;;;;;;6.80;6.50;;;;;;;20.09;27.34;101310.75;5045545;28;20464;-64
2022/05/01 11:45:47;;;;;;;6.90;6.60;;;;;;;20.66;28.20;101298.06;5051220;28;20074;-64
2022/05/01 11:48:18;;;;;;;7.03;6.72;;;;;;;20.48;28.56;101301.53;5047933;28;20148;-64
2022/05/01 11:50:45;;;;;;;7.25;6.95;;;;;;;18.96;30.02;101297.00;5049516;28;20017;-64
2022/05/01 11:53:28;;;;;;;7.10;6.80;;;;;;;19.69;29.42;101307.50;5043213;28;20033;-64
2022/05/01 12:04:26;;;;;;;6.80;6.50;;;;;;;20.26;27.61;101293.00;5051361;28;20192;-66